createdAt,value
2019-03-02T00:01:56.661Z,34.37
2019-03-02T00:04:26.007Z,38.23
2019-03-02T00:06:55.381Z,34.53
2019-03-02T00:09:24.844Z,35.83
2019-03-02T00:11:58.147Z,36.63
2019-03-02T00:14:29.025Z,37.40
2019-03-02T00:16:59.184Z,34.60
2019-03-02T00:19:29.098Z,37.73
2019-03-02T00:22:06.566Z,37.77
2019-03-02T00:24:33.726Z,37.73
2019-03-02T00:27:03.056Z,40.95
2019-03-02T00:29:32.441Z,36.93
2019-03-02T00:32:05.808Z,37.60
2019-03-02T00:34:36.551Z,40.00
2019-03-02T00:37:06.684Z,41.23
2019-03-02T00:39:36.085Z,40.50
2019-03-02T00:42:05.464Z,46.03
2019-03-02T00:44:35.714Z,33.80
2019-03-02T00:47:09.141Z,35.60
2019-03-02T00:49:38.484Z,34.77
2019-03-02T00:52:08.233Z,40.30
2019-03-02T00:54:37.982Z,35.33
2019-03-02T00:57:07.363Z,39.80
2019-03-02T00:59:39.393Z,38.27
2019-03-02T01:02:08.956Z,40.93
2019-03-02T01:04:38.341Z,38.63
2019-03-02T01:07:09.181Z,43.37
2019-03-02T01:09:43.670Z,40.53
2019-03-02T01:12:14.861Z,44.03
2019-03-02T01:14:44.245Z,39.37
2019-03-02T01:17:14.373Z,44.00
2019-03-02T01:19:44.212Z,42.27
2019-03-02T01:22:16.406Z,42.27
2019-03-02T01:24:44.740Z,36.93
2019-03-02T01:27:14.207Z,44.38
2019-03-02T01:29:43.601Z,43.30
2019-03-02T01:32:16.198Z,42.10
2019-03-02T01:34:44.060Z,46.23
2019-03-02T01:37:13.457Z,45.07
2019-03-02T01:39:44.421Z,42.27
2019-03-02T01:42:15.178Z,42.67
2019-03-02T01:44:44.496Z,49.43
2019-03-02T01:47:15.750Z,46.73
2019-03-02T01:49:45.329Z,50.53
2019-03-02T01:52:21.078Z,43.73
2019-03-02T01:54:52.519Z,46.73
2019-03-02T01:57:25.194Z,48.16
2019-03-02T01:59:55.595Z,45.00
2019-03-02T02:02:25.394Z,47.03
2019-03-02T02:04:57.526Z,49.03
2019-03-02T02:07:25.893Z,51.17
2019-03-02T02:09:55.664Z,48.83
2019-03-02T02:12:28.740Z,54.67
2019-03-02T02:15:07.050Z,46.27
2019-03-02T02:17:37.624Z,45.13
2019-03-02T02:20:11.023Z,51.28
2019-03-02T02:22:39.602Z,46.43
2019-03-02T02:25:11.557Z,44.93
2019-03-02T02:27:40.921Z,50.70
2019-03-02T02:30:18.850Z,52.50
2019-03-02T02:32:45.444Z,53.37
2019-03-02T02:35:16.877Z,49.25
2019-03-02T02:37:46.271Z,54.13
2019-03-02T02:40:18.970Z,54.52
2019-03-02T02:42:53.303Z,51.03
2019-03-02T02:45:23.759Z,53.07
2019-03-02T02:47:54.478Z,49.40
2019-03-02T02:50:29.653Z,54.60
2019-03-02T02:52:55.294Z,57.83
2019-03-02T02:55:25.441Z,54.60
2019-03-02T02:57:54.915Z,49.40
2019-03-02T03:00:25.322Z,55.67
2019-03-02T03:02:54.764Z,52.97
2019-03-02T03:05:24.132Z,52.75
2019-03-02T03:07:55.846Z,51.53
2019-03-02T03:10:39.065Z,52.70
2019-03-02T03:13:09.212Z,51.87
2019-03-02T03:15:56.990Z,52.30
2019-03-02T03:18:26.402Z,55.43
2019-03-02T03:20:55.799Z,51.80
2019-03-02T03:23:26.498Z,54.00
2019-03-02T03:25:58.387Z,57.90
2019-03-02T03:28:30.545Z,59.67
2019-03-02T03:30:59.158Z,52.60
2019-03-02T03:33:41.992Z,52.53
2019-03-02T03:36:02.524Z,55.67
2019-03-02T03:38:31.845Z,55.98
2019-03-02T03:41:05.276Z,54.93
2019-03-02T03:43:41.874Z,54.13
2019-03-02T03:46:03.882Z,55.90
2019-03-02T03:48:33.298Z,57.93
2019-03-02T03:51:03.999Z,58.27
2019-03-02T03:53:38.263Z,57.43
2019-03-02T03:56:08.222Z,58.67
2019-03-02T03:58:41.313Z,55.93
2019-03-02T04:01:17.088Z,55.50
2019-03-02T04:03:47.134Z,64.90
2019-03-02T04:06:13.946Z,59.33
2019-03-02T04:08:43.639Z,56.07
2019-03-02T04:11:13.445Z,61.60
2019-03-02T04:13:44.760Z,54.73
2019-03-02T04:16:20.611Z,68.00
2019-03-02T04:18:58.006Z,54.15
2019-03-02T04:21:32.817Z,53.30
2019-03-02T04:24:03.277Z,58.00
2019-03-02T04:26:36.517Z,63.33
2019-03-02T04:29:10.169Z,55.20
2019-03-02T04:31:36.396Z,60.12
2019-03-02T04:34:05.780Z,59.30
2019-03-02T04:36:38.129Z,64.33
2019-03-02T04:39:09.702Z,52.40
2019-03-02T04:41:40.849Z,54.33
2019-03-02T04:44:10.334Z,57.50
2019-03-02T04:46:39.724Z,72.60
2019-03-02T04:49:10.846Z,56.83
2019-03-02T04:51:40.578Z,54.53
2019-03-02T04:54:09.964Z,56.50
2019-03-02T04:56:42.658Z,53.90
2019-03-02T04:59:12.940Z,61.88
2019-03-02T05:01:43.739Z,69.23
2019-03-02T05:04:13.443Z,64.07
2019-03-02T05:06:43.821Z,54.87
2019-03-02T05:09:13.659Z,63.80
2019-03-02T05:11:44.846Z,60.37
2019-03-02T05:14:18.495Z,57.10
2019-03-02T05:16:48.931Z,69.00
2019-03-02T05:19:18.869Z,72.40
2019-03-02T05:21:49.296Z,63.20
2019-03-02T05:24:19.285Z,66.77
2019-03-02T05:26:49.184Z,72.70
2019-03-02T05:29:19.133Z,65.17
2019-03-02T05:31:48.533Z,67.90
2019-03-02T05:34:18.064Z,59.00
2019-03-02T05:36:48.501Z,58.27
2019-03-02T05:39:18.470Z,70.78
2019-03-02T05:41:49.126Z,56.97
2019-03-02T05:44:19.786Z,71.87
2019-03-02T05:46:49.467Z,64.42
2019-03-02T05:49:19.813Z,61.33
2019-03-02T05:51:50.054Z,63.47
2019-03-02T05:54:19.609Z,76.97
2019-03-02T05:56:49.553Z,69.17
2019-03-02T05:59:18.927Z,54.00
2019-03-02T06:01:50.236Z,61.80
2019-03-02T06:04:22.066Z,52.83
2019-03-02T06:06:53.739Z,59.47
2019-03-02T06:09:22.221Z,54.45
2019-03-02T06:11:52.212Z,52.13
2019-03-02T06:14:21.596Z,52.43
2019-03-02T06:16:53.862Z,54.27
2019-03-02T06:19:24.312Z,54.40
2019-03-02T06:21:53.720Z,57.67
2019-03-02T06:24:23.156Z,52.30
2019-03-02T06:26:53.338Z,47.77
2019-03-02T06:29:22.724Z,51.37
2019-03-02T06:31:54.001Z,49.95
2019-03-02T06:34:27.145Z,53.20
2019-03-02T06:36:57.044Z,53.50
2019-03-02T06:39:28.093Z,52.17
2019-03-02T06:41:58.390Z,46.93
2019-03-02T06:44:30.782Z,48.77
2019-03-02T06:47:02.214Z,51.57
2019-03-02T06:49:31.628Z,43.47
2019-03-02T06:52:01.017Z,47.50
2019-03-02T06:54:30.453Z,47.80
2019-03-02T06:57:00.175Z,40.38
2019-03-02T06:59:29.553Z,40.73
2019-03-02T07:01:59.723Z,44.10
2019-03-02T07:04:33.191Z,50.77
2019-03-02T07:07:06.096Z,43.67
2019-03-02T07:09:35.118Z,43.90
2019-03-02T07:12:05.944Z,45.27
2019-03-02T07:14:36.176Z,45.67
2019-03-02T07:17:05.898Z,40.67
2019-03-02T07:19:42.707Z,42.85
2019-03-02T07:22:13.513Z,40.70
2019-03-02T07:24:46.397Z,46.15
2019-03-02T07:27:16.445Z,48.40
2019-03-02T07:29:45.834Z,53.87
2019-03-02T07:32:16.609Z,50.83
2019-03-02T07:34:46.253Z,55.40
2019-03-02T07:37:16.297Z,52.78
2019-03-02T07:39:45.683Z,48.40
2019-03-02T07:42:16.497Z,52.85
2019-03-02T07:44:45.913Z,52.70
2019-03-02T07:47:20.615Z,49.53
2019-03-02T07:49:50.696Z,51.63
2019-03-02T07:52:20.200Z,50.23
2019-03-02T07:54:58.101Z,57.57
2019-03-02T07:57:20.809Z,56.93
2019-03-02T07:59:52.404Z,60.80
2019-03-02T08:02:21.773Z,51.73
2019-03-02T08:04:51.504Z,54.00
2019-03-02T08:07:20.888Z,60.23
2019-03-02T08:09:51.469Z,54.63
2019-03-02T08:12:24.794Z,52.87
2019-03-02T08:14:53.561Z,53.60
2019-03-02T08:17:22.961Z,51.20
2019-03-02T08:19:52.702Z,61.13
2019-03-02T08:22:22.161Z,51.82
2019-03-02T08:24:51.678Z,55.27
2019-03-02T08:27:21.092Z,55.97
2019-03-02T08:29:53.912Z,54.30
2019-03-02T08:32:22.090Z,53.78
2019-03-02T08:34:52.621Z,63.33
2019-03-02T08:37:22.560Z,60.15
2019-03-02T08:39:52.147Z,58.10
2019-03-02T08:42:22.008Z,62.67
2019-03-02T08:44:54.070Z,55.37
2019-03-02T08:47:24.524Z,57.97
2019-03-02T08:49:53.946Z,65.70
2019-03-02T08:52:23.657Z,56.97
2019-03-02T08:54:53.554Z,52.27
2019-03-02T08:57:25.347Z,60.83
2019-03-02T08:59:56.224Z,54.47
2019-03-02T09:02:26.406Z,51.57
2019-03-02T09:04:55.820Z,54.97
2019-03-02T09:07:27.251Z,54.40
2019-03-02T09:09:57.741Z,50.50
2019-03-02T09:12:28.149Z,50.33
2019-03-02T09:14:57.516Z,52.93
2019-03-02T09:17:28.114Z,52.30
2019-03-02T09:19:59.593Z,54.23
2019-03-02T09:22:30.413Z,46.50
2019-03-02T09:24:59.781Z,46.50
2019-03-02T09:27:30.602Z,51.77
2019-03-02T09:30:00.189Z,47.57
2019-03-02T09:32:33.636Z,58.60
2019-03-02T09:35:03.842Z,47.90
2019-03-02T09:37:33.228Z,51.30
2019-03-02T09:40:03.687Z,45.17
2019-03-02T09:42:37.936Z,46.05
2019-03-02T09:45:07.669Z,44.43
2019-03-02T09:47:37.314Z,49.57
2019-03-02T09:50:10.046Z,49.95
2019-03-02T09:52:40.754Z,44.50
2019-03-02T09:55:10.882Z,50.00
2019-03-02T09:57:47.303Z,44.23
2019-03-02T10:00:19.189Z,47.20
2019-03-02T10:02:50.033Z,49.90
2019-03-02T10:05:19.866Z,42.73
2019-03-02T10:07:49.336Z,47.40
2019-03-02T10:10:19.277Z,47.83
2019-03-02T10:12:51.732Z,45.00
2019-03-02T10:15:24.191Z,42.77
2019-03-02T10:17:53.783Z,42.70
2019-03-02T10:20:23.216Z,43.00
2019-03-02T10:22:54.434Z,40.27
2019-03-02T10:25:25.994Z,42.73
2019-03-02T10:27:57.464Z,39.00
2019-03-02T10:30:28.985Z,36.30
2019-03-02T10:32:58.729Z,40.13
2019-03-02T10:35:29.306Z,46.93
2019-03-02T10:37:59.212Z,40.80
2019-03-02T10:40:31.122Z,43.43
2019-03-02T10:43:01.164Z,43.70
2019-03-02T10:45:33.759Z,40.10
2019-03-02T10:48:06.955Z,48.13
2019-03-02T10:50:37.009Z,43.10
2019-03-02T10:53:06.393Z,45.77
2019-03-02T10:55:36.910Z,37.10
2019-03-02T10:58:10.375Z,44.63
2019-03-02T11:00:41.034Z,41.30
2019-03-02T11:03:13.085Z,45.57
2019-03-02T11:05:56.916Z,42.10
2019-03-02T11:08:44.726Z,37.23
2019-03-02T11:11:44.279Z,42.60
2019-03-02T11:14:27.787Z,33.20
2019-03-02T11:17:06.910Z,34.00
2019-03-02T11:19:54.547Z,34.27
2019-03-02T11:22:44.558Z,32.30
2019-03-02T11:25:30.284Z,31.90
2019-03-02T11:28:25.397Z,29.23
2019-03-02T11:31:23.448Z,32.27
2019-03-02T11:34:09.283Z,27.07
2019-03-02T11:36:57.831Z,34.60
2019-03-02T11:39:40.703Z,31.27
2019-03-02T11:42:15.648Z,34.97
2019-03-02T11:45:03.210Z,30.48
2019-03-02T11:47:51.782Z,37.28
2019-03-02T11:50:54.766Z,30.60
2019-03-02T11:53:29.628Z,35.55
2019-03-02T11:56:10.197Z,32.27
2019-03-02T11:58:58.552Z,32.33
2019-03-02T12:01:37.373Z,27.03
2019-03-02T12:04:37.813Z,31.53
2019-03-02T12:07:26.133Z,34.35
2019-03-02T12:10:17.426Z,28.47
2019-03-02T12:12:58.732Z,30.30
2019-03-02T12:15:35.399Z,27.93
2019-03-02T12:18:26.625Z,28.60
2019-03-02T12:21:06.668Z,33.75
2019-03-02T12:24:15.058Z,26.97
2019-03-02T12:27:14.340Z,42.93
2019-03-02T12:30:25.990Z,31.43
2019-03-02T12:33:22.710Z,28.57
2019-03-02T12:36:01.113Z,28.90
2019-03-02T12:38:52.404Z,30.90
2019-03-02T12:41:39.509Z,26.95
2019-03-02T12:44:27.526Z,23.67
2019-03-02T12:47:14.852Z,30.63
2019-03-02T12:50:23.154Z,28.87
2019-03-02T12:53:24.533Z,31.37
2019-03-02T12:56:32.908Z,29.67
2019-03-02T12:59:35.911Z,37.23
2019-03-02T13:02:38.816Z,28.13
2019-03-02T13:05:43.756Z,25.35
2019-03-02T13:08:38.665Z,27.00
2019-03-02T13:11:33.249Z,28.97
2019-03-02T13:14:20.591Z,28.63
2019-03-02T13:17:17.988Z,26.37
2019-03-02T13:20:06.598Z,25.00
2019-03-02T13:22:50.712Z,25.48
2019-03-02T13:25:47.667Z,29.68
2019-03-02T13:28:23.302Z,23.38
2019-03-02T13:31:11.627Z,33.17
2019-03-02T13:34:11.552Z,26.13
2019-03-02T13:37:08.977Z,25.47
2019-03-02T13:40:00.126Z,25.05
2019-03-02T13:42:50.964Z,28.80
2019-03-02T13:45:32.436Z,29.13
2019-03-02T13:48:10.913Z,25.03
2019-03-02T13:51:08.533Z,29.20
2019-03-02T13:54:04.422Z,39.00
2019-03-02T13:56:53.314Z,28.00
2019-03-02T13:59:53.517Z,29.10
2019-03-02T14:02:41.872Z,25.83
2019-03-02T14:05:42.051Z,33.00
2019-03-02T14:08:28.357Z,31.50
2019-03-02T14:11:24.030Z,31.47
2019-03-02T14:14:08.356Z,25.40
2019-03-02T14:16:56.567Z,24.33
2019-03-02T14:19:37.981Z,26.37
2019-03-02T14:22:26.065Z,26.77
2019-03-02T14:25:19.041Z,31.93
2019-03-02T14:27:59.385Z,29.23
2019-03-02T14:30:43.981Z,26.27
2019-03-02T14:33:25.734Z,23.10
2019-03-02T14:36:16.730Z,30.37
2019-03-02T14:39:03.184Z,20.48
2019-03-02T14:41:48.089Z,31.40
2019-03-02T14:44:37.065Z,25.50
2019-03-02T14:47:36.578Z,22.97
2019-03-02T14:50:27.343Z,28.55
2019-03-02T14:53:14.681Z,25.90
2019-03-02T14:56:15.929Z,29.50
2019-03-02T14:58:56.133Z,26.30
2019-03-02T15:01:44.818Z,28.85
2019-03-02T15:04:39.152Z,28.40
2019-03-02T15:07:22.300Z,33.73
2019-03-02T15:10:03.057Z,26.40
2019-03-02T15:12:58.247Z,29.50
2019-03-02T15:15:42.901Z,26.73
2019-03-02T15:18:44.702Z,28.10
2019-03-02T15:21:27.542Z,30.83
2019-03-02T15:24:16.565Z,27.52
2019-03-02T15:26:55.203Z,28.35
2019-03-02T15:29:51.698Z,28.30
2019-03-02T15:32:53.218Z,29.65
2019-03-02T15:35:33.647Z,32.00
2019-03-02T15:38:23.454Z,32.43
2019-03-02T15:41:21.737Z,27.83
2019-03-02T15:44:10.584Z,30.02
2019-03-02T15:46:50.266Z,34.00
2019-03-02T15:49:26.214Z,25.73
2019-03-02T15:52:07.736Z,28.30
2019-03-02T15:55:04.898Z,30.83
2019-03-02T15:57:48.521Z,31.00
2019-03-02T16:00:38.347Z,28.25
2019-03-02T16:03:41.116Z,30.20
2019-03-02T16:06:19.607Z,28.00
2019-03-02T16:09:18.249Z,26.60
2019-03-02T16:12:13.069Z,27.13
2019-03-02T16:15:03.174Z,29.57
2019-03-02T16:17:43.342Z,29.30
2019-03-02T16:20:30.499Z,31.20
2019-03-02T16:23:20.681Z,30.90
2019-03-02T16:26:29.415Z,27.57
2019-03-02T16:29:19.155Z,34.67
2019-03-02T16:32:05.470Z,29.20
2019-03-02T16:34:53.792Z,33.42
2019-03-02T16:37:53.921Z,27.87
2019-03-02T16:40:30.738Z,28.00
2019-03-02T16:43:34.461Z,32.38
2019-03-02T16:46:12.502Z,35.47
2019-03-02T16:48:55.093Z,37.57
2019-03-02T16:51:36.078Z,31.50
2019-03-02T16:54:36.142Z,32.83
2019-03-02T16:57:30.192Z,37.53
2019-03-02T17:00:11.421Z,40.50
2019-03-02T17:02:51.456Z,34.77
2019-03-02T17:05:38.806Z,34.13
2019-03-02T17:08:31.041Z,26.97
2019-03-02T17:11:19.146Z,29.03
2019-03-02T17:14:09.157Z,30.40
2019-03-02T17:16:53.618Z,30.82
2019-03-02T17:19:31.863Z,29.07
2019-03-02T17:22:12.076Z,28.80
2019-03-02T17:25:00.240Z,23.10
2019-03-02T17:27:54.143Z,27.43
2019-03-02T17:30:36.124Z,24.37
2019-03-02T17:33:31.265Z,26.43
2019-03-02T17:36:20.416Z,28.93
2019-03-02T17:39:18.196Z,24.80
2019-03-02T17:42:19.501Z,30.53
2019-03-02T17:45:20.746Z,29.70
2019-03-02T17:48:09.430Z,27.93
2019-03-02T17:50:58.712Z,23.70
2019-03-02T17:53:46.736Z,24.37
2019-03-02T17:56:47.533Z,33.73
2019-03-02T17:59:39.798Z,33.67
2019-03-02T18:02:20.929Z,28.47
2019-03-02T18:05:18.341Z,33.30
2019-03-02T18:08:13.709Z,31.40
2019-03-02T18:11:13.357Z,41.03
2019-03-02T18:13:58.053Z,35.93
2019-03-02T18:16:41.357Z,33.93
2019-03-02T18:19:11.055Z,34.53
2019-03-02T18:21:41.890Z,29.90
2019-03-02T18:24:13.089Z,24.13
2019-03-02T18:26:44.562Z,27.00
2019-03-02T18:29:18.240Z,28.13
2019-03-02T18:31:47.974Z,33.30
2019-03-02T18:34:24.052Z,27.32
2019-03-02T18:36:53.103Z,26.97
2019-03-02T18:39:25.538Z,26.70
2019-03-02T18:41:54.957Z,24.63
2019-03-02T18:44:24.349Z,32.07
2019-03-02T18:46:54.517Z,30.80
2019-03-02T18:49:47.394Z,27.17
2019-03-02T18:52:28.062Z,30.17
2019-03-02T18:54:57.423Z,34.03
2019-03-02T18:57:26.815Z,39.10
2019-03-02T18:59:56.613Z,27.83
2019-03-02T19:02:29.516Z,27.58
2019-03-02T19:04:59.643Z,31.77
2019-03-02T19:07:29.268Z,33.13
2019-03-02T19:09:59.789Z,50.13
2019-03-02T19:12:33.930Z,38.63
2019-03-02T19:15:03.398Z,34.90
2019-03-02T19:17:43.159Z,47.27
2019-03-02T19:20:14.939Z,33.30
2019-03-02T19:22:45.585Z,34.90
2019-03-02T19:25:16.514Z,34.78
2019-03-02T19:27:45.907Z,31.50
2019-03-02T19:30:17.992Z,32.48
2019-03-02T19:32:47.522Z,31.13
2019-03-02T19:35:18.240Z,32.13
2019-03-02T19:37:49.350Z,28.43
2019-03-02T19:40:22.162Z,32.20
2019-03-02T19:42:51.697Z,29.43
2019-03-02T19:45:22.065Z,26.07
2019-03-02T19:47:52.346Z,26.40
2019-03-02T19:50:21.851Z,28.73
2019-03-02T19:52:52.223Z,22.30
2019-03-02T19:55:21.623Z,25.88
2019-03-02T19:57:51.217Z,34.17
2019-03-02T20:00:22.795Z,26.37
2019-03-02T20:02:56.468Z,22.98
2019-03-02T20:05:27.411Z,30.23
2019-03-02T20:07:58.107Z,28.10
2019-03-02T20:10:27.742Z,25.30
2019-03-02T20:12:57.540Z,27.82
2019-03-02T20:15:27.957Z,26.73
2019-03-02T20:17:57.808Z,24.90
2019-03-02T20:20:27.369Z,28.53
2019-03-02T20:22:57.098Z,27.77
2019-03-02T20:25:28.649Z,22.80
2019-03-02T20:27:57.971Z,25.60
2019-03-02T20:30:27.604Z,29.97
2019-03-02T20:33:00.401Z,27.73
2019-03-02T20:35:30.598Z,26.57
2019-03-02T20:38:00.624Z,25.73
2019-03-02T20:40:30.257Z,28.70
2019-03-02T20:42:59.909Z,24.50
2019-03-02T20:45:29.884Z,33.20
2019-03-02T20:47:59.373Z,27.13
2019-03-02T20:50:28.894Z,29.00
2019-03-02T20:52:58.347Z,30.13
2019-03-02T20:55:28.170Z,26.77
2019-03-02T20:57:57.876Z,28.53
2019-03-02T21:00:28.278Z,25.33
2019-03-02T21:02:57.990Z,27.13
2019-03-02T21:05:28.091Z,26.40
2019-03-02T21:07:57.676Z,23.13
2019-03-02T21:10:27.729Z,27.82
2019-03-02T21:12:57.203Z,25.37
2019-03-02T21:15:32.262Z,24.00
2019-03-02T21:18:01.674Z,25.00
2019-03-02T21:20:31.485Z,23.20
2019-03-02T21:23:02.856Z,25.30
2019-03-02T21:25:34.573Z,27.73
2019-03-02T21:28:04.028Z,26.07
2019-03-02T21:30:33.461Z,29.00
2019-03-02T21:33:03.276Z,27.30
2019-03-02T21:35:34.466Z,34.40
2019-03-02T21:38:05.331Z,28.63
2019-03-02T21:40:34.714Z,25.77
2019-03-02T21:43:05.188Z,28.35
2019-03-02T21:45:34.628Z,27.50
2019-03-02T21:48:04.133Z,27.43
2019-03-02T21:50:33.850Z,31.20
2019-03-02T21:53:06.178Z,31.13
2019-03-02T21:55:35.932Z,28.80
2019-03-02T21:58:05.478Z,27.60
2019-03-02T22:00:35.317Z,27.98
2019-03-02T22:03:05.704Z,27.00
2019-03-02T22:05:35.839Z,27.85
2019-03-02T22:08:05.274Z,30.93
2019-03-02T22:10:38.664Z,25.25
2019-03-02T22:13:11.670Z,22.95
2019-03-02T22:15:43.402Z,28.60
2019-03-02T22:18:13.488Z,26.57
2019-03-02T22:20:47.058Z,22.13
2019-03-02T22:23:19.101Z,23.92
2019-03-02T22:25:50.187Z,22.13
2019-03-02T22:28:22.181Z,26.80
2019-03-02T22:30:51.867Z,27.40
2019-03-02T22:33:21.633Z,24.02
2019-03-02T22:35:51.857Z,23.93
2019-03-02T22:38:24.706Z,22.73
2019-03-02T22:40:55.218Z,23.37
2019-03-02T22:43:26.518Z,26.07
2019-03-02T22:45:56.953Z,21.30
2019-03-02T22:48:26.914Z,21.43
2019-03-02T22:50:56.317Z,21.13
2019-03-02T22:53:27.720Z,22.63
2019-03-02T22:55:57.121Z,19.12
2019-03-02T22:58:31.813Z,19.90
2019-03-02T23:01:49.677Z,21.05
2019-03-02T23:04:23.424Z,19.55
2019-03-02T23:06:53.759Z,19.43
2019-03-02T23:09:25.463Z,21.23
2019-03-02T23:11:58.988Z,17.03
2019-03-02T23:14:29.090Z,14.37
2019-03-02T23:16:59.252Z,19.80
2019-03-02T23:19:29.348Z,14.60
2019-03-02T23:21:59.913Z,14.80
2019-03-02T23:24:29.355Z,19.63
2019-03-02T23:26:59.181Z,18.77
2019-03-02T23:29:32.178Z,14.17
2019-03-02T23:32:02.174Z,16.83
2019-03-02T23:34:37.341Z,14.93
2019-03-02T23:37:09.473Z,16.47
2019-03-02T23:39:38.904Z,14.83
2019-03-02T23:42:10.335Z,12.73
2019-03-02T23:44:39.698Z,12.97
2019-03-02T23:47:10.358Z,15.32
2019-03-02T23:49:41.038Z,14.87
2019-03-02T23:52:12.374Z,14.63
2019-03-02T23:54:42.257Z,15.33
2019-03-02T23:57:11.844Z,21.47
2019-03-02T23:59:41.308Z,14.63
